createdAt,value
2023-03-06T00:00:42.143Z,30.83
2023-03-06T00:03:10.161Z,32.70
2023-03-06T00:05:37.764Z,36.35
2023-03-06T00:08:05.437Z,39.20
2023-03-06T00:10:33.563Z,40.60
2023-03-06T00:13:03.271Z,36.92
2023-03-06T00:15:30.988Z,42.92
2023-03-06T00:17:58.194Z,43.67
2023-03-06T00:20:28.782Z,36.33
2023-03-06T00:22:57.419Z,45.33
2023-03-06T00:25:25.207Z,40.10
2023-03-06T00:27:52.631Z,39.45
2023-03-06T00:30:22.559Z,42.65
2023-03-06T00:32:50.358Z,40.25
2023-03-06T00:35:18.078Z,41.45
2023-03-06T00:37:46.294Z,41.55
2023-03-06T00:40:16.716Z,42.30
2023-03-06T00:42:45.515Z,39.75
2023-03-06T00:45:13.494Z,40.45
2023-03-06T00:47:41.342Z,42.67
2023-03-06T00:50:09.916Z,47.38
2023-03-06T00:52:37.586Z,39.58
2023-03-06T00:55:05.758Z,40.00
2023-03-06T00:57:33.064Z,40.63
2023-03-06T01:00:01.216Z,38.95
2023-03-06T01:02:28.223Z,48.30
2023-03-06T01:04:55.522Z,41.25
2023-03-06T01:07:22.749Z,41.08
2023-03-06T01:09:50.825Z,39.88
2023-03-06T01:12:21.347Z,42.60
2023-03-06T01:14:52.372Z,46.67
2023-03-06T01:17:19.572Z,45.70
2023-03-06T01:19:47.168Z,44.35
2023-03-06T01:22:14.454Z,42.72
2023-03-06T01:24:41.386Z,40.97
2023-03-06T01:27:08.838Z,41.72
2023-03-06T01:29:35.900Z,43.13
2023-03-06T01:32:03.127Z,46.10
2023-03-06T01:34:33.519Z,42.92
2023-03-06T01:37:01.318Z,47.35
2023-03-06T01:39:29.254Z,50.40
2023-03-06T01:41:56.899Z,43.38
2023-03-06T01:44:24.026Z,45.67
2023-03-06T01:46:51.166Z,52.22
2023-03-06T01:49:27.535Z,45.15
2023-03-06T01:51:58.677Z,47.33
2023-03-06T01:54:34.417Z,51.30
2023-03-06T01:57:07.190Z,50.22
2023-03-06T01:59:37.608Z,44.78
2023-03-06T02:02:07.154Z,51.83
2023-03-06T02:04:39.049Z,54.05
2023-03-06T02:07:08.114Z,52.30
2023-03-06T02:09:37.436Z,48.58
2023-03-06T02:12:11.354Z,55.03
2023-03-06T02:14:39.590Z,48.75
2023-03-06T02:17:08.740Z,50.63
2023-03-06T02:20:10.451Z,48.88
2023-03-06T02:23:04.510Z,46.35
2023-03-06T02:25:42.071Z,51.08
2023-03-06T02:28:16.248Z,46.15
2023-03-06T02:30:45.734Z,52.78
2023-03-06T02:33:29.695Z,51.45
2023-03-06T02:36:00.606Z,52.08
2023-03-06T02:38:47.299Z,49.95
2023-03-06T02:41:14.398Z,48.25
2023-03-06T02:43:47.836Z,58.35
2023-03-06T02:46:15.288Z,58.08
2023-03-06T02:48:42.954Z,53.63
2023-03-06T02:51:10.840Z,59.60
2023-03-06T02:53:38.338Z,53.53
2023-03-06T02:56:05.789Z,50.28
2023-03-06T02:58:35.455Z,53.03
2023-03-06T03:01:02.576Z,51.88
2023-03-06T03:03:31.085Z,49.08
2023-03-06T03:05:59.129Z,50.00
2023-03-06T03:08:30.224Z,52.75
2023-03-06T03:11:01.943Z,61.90
2023-03-06T03:13:35.925Z,54.05
2023-03-06T03:16:09.322Z,55.00
2023-03-06T03:18:37.481Z,53.90
2023-03-06T03:21:12.206Z,49.28
2023-03-06T03:23:41.292Z,55.40
2023-03-06T03:26:17.352Z,54.63
2023-03-06T03:28:50.085Z,35.88
2023-03-06T03:31:19.763Z,53.25
2023-03-06T03:33:47.045Z,53.97
2023-03-06T03:36:14.440Z,57.60
2023-03-06T03:38:45.481Z,54.13
2023-03-06T03:41:12.675Z,53.67
2023-03-06T03:43:39.708Z,57.58
2023-03-06T03:46:06.696Z,54.03
2023-03-06T03:48:34.364Z,59.53
2023-03-06T03:51:13.445Z,52.80
2023-03-06T03:53:45.057Z,53.05
2023-03-06T03:56:14.490Z,55.28
2023-03-06T03:58:53.767Z,58.30
2023-03-06T04:01:21.744Z,58.00
2023-03-06T04:03:52.789Z,56.45
2023-03-06T04:06:20.183Z,57.67
2023-03-06T04:08:47.983Z,53.78
2023-03-06T04:11:16.582Z,56.80
2023-03-06T04:13:44.319Z,53.65
2023-03-06T04:16:11.367Z,54.00
2023-03-06T04:18:40.139Z,53.70
2023-03-06T04:21:07.870Z,64.15
2023-03-06T04:23:34.942Z,56.10
2023-03-06T04:26:03.906Z,56.20
2023-03-06T04:28:31.270Z,54.70
2023-03-06T04:30:59.453Z,53.53
2023-03-06T04:33:26.848Z,57.38
2023-03-06T04:35:54.916Z,52.72
2023-03-06T04:38:26.245Z,56.22
2023-03-06T04:40:53.166Z,63.80
2023-03-06T04:43:20.226Z,61.33
2023-03-06T04:45:47.342Z,59.13
2023-03-06T04:48:22.661Z,58.05
2023-03-06T04:50:49.751Z,66.63
2023-03-06T04:53:19.672Z,60.03
2023-03-06T04:55:47.121Z,66.70
2023-03-06T04:58:15.138Z,65.75
2023-03-06T05:00:42.192Z,66.70
2023-03-06T05:03:09.696Z,62.55
2023-03-06T05:06:20.801Z,64.65
2023-03-06T05:08:47.972Z,71.20
2023-03-06T05:11:14.916Z,72.18
2023-03-06T05:14:01.066Z,77.10
2023-03-06T05:16:28.024Z,74.40
2023-03-06T05:18:54.968Z,74.70
2023-03-06T05:21:21.946Z,69.50
2023-03-06T05:24:17.041Z,72.55
2023-03-06T05:26:44.667Z,77.00
2023-03-06T05:29:29.952Z,74.35
2023-03-06T05:31:56.975Z,76.07
2023-03-06T05:34:25.008Z,76.50
2023-03-06T05:36:59.161Z,83.18
2023-03-06T05:39:27.579Z,72.95
2023-03-06T05:41:54.804Z,86.15
2023-03-06T05:44:32.543Z,78.90
2023-03-06T05:46:59.982Z,73.45
2023-03-06T05:49:31.379Z,76.35
2023-03-06T05:51:59.687Z,58.90
2023-03-06T05:54:26.816Z,72.25
2023-03-06T05:56:54.840Z,74.00
2023-03-06T05:59:21.741Z,73.20
2023-03-06T06:01:51.742Z,76.50
2023-03-06T06:04:18.648Z,81.22
2023-03-06T06:06:45.548Z,76.00
2023-03-06T06:09:13.972Z,77.07
2023-03-06T06:11:40.913Z,91.50
2023-03-06T06:14:07.799Z,76.32
2023-03-06T06:16:34.808Z,78.70
2023-03-06T06:19:01.792Z,78.53
2023-03-06T06:21:28.753Z,79.30
2023-03-06T06:23:56.435Z,74.13
2023-03-06T06:26:23.363Z,73.85
2023-03-06T06:28:50.303Z,73.00
2023-03-06T06:31:17.487Z,68.25
2023-03-06T06:33:44.643Z,72.38
2023-03-06T06:36:21.992Z,80.65
2023-03-06T06:38:50.963Z,66.30
2023-03-06T06:41:51.801Z,77.45
2023-03-06T06:44:11.355Z,76.20
2023-03-06T06:49:27.892Z,68.30
2023-03-06T06:51:54.997Z,70.18
2023-03-06T06:54:22.567Z,62.67
2023-03-06T06:56:49.640Z,66.13
2023-03-06T06:59:17.661Z,66.32
2023-03-06T07:01:45.027Z,61.58
2023-03-06T07:04:17.503Z,61.97
2023-03-06T07:06:45.897Z,63.80
2023-03-06T07:09:13.441Z,75.45
2023-03-06T07:11:43.544Z,60.00
2023-03-06T07:14:10.631Z,60.97
2023-03-06T07:16:37.759Z,66.40
2023-03-06T07:19:04.675Z,70.47
2023-03-06T07:21:31.769Z,66.40
2023-03-06T07:24:02.095Z,63.95
2023-03-06T07:26:33.503Z,61.25
2023-03-06T07:29:03.660Z,69.80
2023-03-06T07:31:30.938Z,68.50
2023-03-06T07:33:58.046Z,62.53
2023-03-06T07:36:25.155Z,67.55
2023-03-06T07:38:52.233Z,65.90
2023-03-06T07:41:22.360Z,64.70
2023-03-06T07:43:50.420Z,65.40
2023-03-06T07:46:19.534Z,68.43
2023-03-06T07:48:46.555Z,62.72
2023-03-06T07:51:23.245Z,61.88
2023-03-06T07:53:51.019Z,73.65
2023-03-06T07:56:18.038Z,57.47
2023-03-06T07:58:47.599Z,60.03
2023-03-06T08:01:17.463Z,63.17
2023-03-06T08:03:44.707Z,55.15
2023-03-06T08:06:23.785Z,59.63
2023-03-06T08:08:52.820Z,68.45
2023-03-06T08:11:21.519Z,61.17
2023-03-06T08:13:48.928Z,64.68
2023-03-06T08:16:17.603Z,57.28
2023-03-06T08:18:46.390Z,57.55
2023-03-06T08:21:19.812Z,62.45
2023-03-06T08:23:47.656Z,64.03
2023-03-06T08:26:18.147Z,57.95
2023-03-06T08:28:47.344Z,54.72
2023-03-06T08:31:31.259Z,54.67
2023-03-06T08:34:04.919Z,58.83
2023-03-06T08:36:32.197Z,62.75
2023-03-06T08:38:59.633Z,52.47
2023-03-06T08:41:27.223Z,63.35
2023-03-06T08:43:54.676Z,54.15
2023-03-06T08:46:25.419Z,52.10
2023-03-06T08:48:52.399Z,53.88
2023-03-06T08:51:20.524Z,52.70
2023-03-06T08:53:48.005Z,53.78
2023-03-06T08:56:20.835Z,57.55
2023-03-06T08:58:48.741Z,48.22
2023-03-06T09:01:19.466Z,53.25
2023-03-06T09:03:47.111Z,51.88
2023-03-06T09:06:14.718Z,53.20
2023-03-06T09:08:44.632Z,47.00
2023-03-06T09:11:15.822Z,50.20
2023-03-06T09:13:43.726Z,52.45
2023-03-06T09:16:13.212Z,50.38
2023-03-06T09:18:40.479Z,43.00
2023-03-06T09:21:08.688Z,46.05
2023-03-06T09:23:39.556Z,49.47
2023-03-06T09:26:08.491Z,53.47
2023-03-06T09:28:39.347Z,45.42
2023-03-06T09:31:15.190Z,43.65
2023-03-06T09:33:42.517Z,47.88
2023-03-06T09:36:14.911Z,41.60
2023-03-06T09:38:41.899Z,40.67
2023-03-06T09:41:33.092Z,48.20
2023-03-06T09:44:20.047Z,45.75
2023-03-06T09:47:07.084Z,45.22
2023-03-06T09:50:01.960Z,44.85
2023-03-06T09:52:58.222Z,44.45
2023-03-06T09:55:28.146Z,44.67
2023-03-06T09:58:07.549Z,45.95
2023-03-06T10:00:39.964Z,45.33
2023-03-06T10:03:20.226Z,49.97
2023-03-06T10:05:58.411Z,46.78
2023-03-06T10:08:36.414Z,44.70
2023-03-06T10:11:08.734Z,42.08
2023-03-06T10:13:38.478Z,42.83
2023-03-06T10:16:29.404Z,44.60
2023-03-06T10:19:03.590Z,40.42
2023-03-06T10:21:42.402Z,42.33
2023-03-06T10:24:34.111Z,37.97
2023-03-06T10:27:13.756Z,39.08
2023-03-06T10:30:07.317Z,40.80
2023-03-06T10:32:48.377Z,37.70
2023-03-06T10:35:20.215Z,35.92
2023-03-06T10:37:48.112Z,38.10
2023-03-06T10:40:22.138Z,46.75
2023-03-06T10:42:56.069Z,43.45
2023-03-06T10:45:33.078Z,40.90
2023-03-06T10:48:13.370Z,45.70
2023-03-06T10:50:41.189Z,35.65
2023-03-06T10:53:19.994Z,38.40
2023-03-06T10:55:56.326Z,36.92
2023-03-06T10:58:28.349Z,42.72
2023-03-06T11:03:30.780Z,42.78
2023-03-06T11:06:15.044Z,36.08
2023-03-06T11:08:45.876Z,38.30
2023-03-06T11:11:36.744Z,41.45
2023-03-06T11:14:18.293Z,34.40
2023-03-06T11:16:53.780Z,38.33
2023-03-06T11:19:26.554Z,38.28
2023-03-06T11:22:05.660Z,37.33
2023-03-06T11:24:40.690Z,37.40
2023-03-06T11:27:35.062Z,39.92
2023-03-06T11:30:06.934Z,38.10
2023-03-06T11:32:51.908Z,39.95
2023-03-06T11:35:35.390Z,43.00
2023-03-06T11:38:13.678Z,47.15
2023-03-06T11:40:52.057Z,41.80
2023-03-06T11:43:24.211Z,38.88
2023-03-06T11:48:46.362Z,45.38
2023-03-06T11:51:22.065Z,43.65
2023-03-06T11:53:49.421Z,50.63
2023-03-06T11:56:19.462Z,53.65
2023-03-06T11:59:09.466Z,45.88
2023-03-06T12:02:09.342Z,46.97
2023-03-06T12:04:55.928Z,39.72
2023-03-06T12:07:51.566Z,39.28
2023-03-06T12:10:25.263Z,37.50
2023-03-06T12:13:19.940Z,43.20
2023-03-06T12:16:07.695Z,45.28
2023-03-06T12:18:34.594Z,43.67
2023-03-06T12:21:10.445Z,38.85
2023-03-06T12:23:59.610Z,41.30
2023-03-06T12:26:35.920Z,39.95
2023-03-06T12:29:16.769Z,38.88
2023-03-06T12:31:55.739Z,38.53
2023-03-06T12:34:31.852Z,34.67
2023-03-06T12:37:37.434Z,40.63
2023-03-06T12:40:23.718Z,39.63
2023-03-06T12:43:05.207Z,39.15
2023-03-06T12:45:34.216Z,40.95
2023-03-06T12:48:03.663Z,37.47
2023-03-06T12:50:39.985Z,32.58
2023-03-06T12:53:13.294Z,40.25
2023-03-06T12:55:44.389Z,38.85
2023-03-06T12:58:35.485Z,34.28
2023-03-06T13:01:30.706Z,35.65
2023-03-06T13:04:19.364Z,30.45
2023-03-06T13:06:51.556Z,34.83
2023-03-06T13:09:38.855Z,36.72
2023-03-06T13:12:24.796Z,31.88
2023-03-06T13:14:55.892Z,34.55
2023-03-06T13:17:35.452Z,31.02
2023-03-06T13:20:36.222Z,33.53
2023-03-06T13:23:34.541Z,40.10
2023-03-06T13:26:31.989Z,36.60
2023-03-06T13:28:58.979Z,36.13
2023-03-06T13:31:46.331Z,33.78
2023-03-06T13:34:47.162Z,38.85
2023-03-06T13:37:14.209Z,34.35
2023-03-06T13:39:59.352Z,38.97
2023-03-06T13:42:32.060Z,38.20
2023-03-06T13:45:08.441Z,38.17
2023-03-06T13:48:10.703Z,32.95
2023-03-06T13:50:46.303Z,37.60
2023-03-06T13:53:28.616Z,35.53
2023-03-06T13:58:43.836Z,33.95
2023-03-06T14:01:33.651Z,28.35
2023-03-06T14:04:12.010Z,31.48
2023-03-06T14:06:51.819Z,27.75
2023-03-06T14:09:42.324Z,30.17
2023-03-06T14:12:26.621Z,28.10
2023-03-06T14:14:59.247Z,32.90
2023-03-06T14:17:35.321Z,29.13
2023-03-06T14:20:13.677Z,32.50
2023-03-06T14:22:40.952Z,22.73
2023-03-06T14:25:14.272Z,20.63
2023-03-06T14:27:47.221Z,24.02
2023-03-06T14:30:21.328Z,30.15
2023-03-06T14:32:50.748Z,26.13
2023-03-06T14:35:26.622Z,34.88
2023-03-06T14:37:57.713Z,33.60
2023-03-06T14:40:37.013Z,28.27
2023-03-06T14:43:20.586Z,33.15
2023-03-06T14:45:58.166Z,31.42
2023-03-06T14:48:36.258Z,35.88
2023-03-06T14:51:03.245Z,34.55
2023-03-06T14:53:33.689Z,35.75
2023-03-06T14:56:06.414Z,33.35
2023-03-06T14:58:41.999Z,44.40
2023-03-06T15:01:11.499Z,35.75
2023-03-06T15:03:49.348Z,34.83
2023-03-06T15:06:23.242Z,34.88
2023-03-06T15:09:08.363Z,38.17
2023-03-06T15:11:58.220Z,33.03
2023-03-06T15:14:37.345Z,40.83
2023-03-06T15:17:27.515Z,31.42
2023-03-06T15:19:56.912Z,32.83
2023-03-06T15:22:33.011Z,39.42
2023-03-06T15:25:24.206Z,36.78
2023-03-06T15:28:26.121Z,33.05
2023-03-06T15:31:21.002Z,32.60
2023-03-06T15:34:16.963Z,31.88
2023-03-06T15:36:47.592Z,30.52
2023-03-06T15:39:28.597Z,35.65
2023-03-06T15:41:59.710Z,35.72
2023-03-06T15:44:29.277Z,35.10
2023-03-06T15:47:06.633Z,46.13
2023-03-06T15:49:40.533Z,35.38
2023-03-06T15:52:09.405Z,37.88
2023-03-06T15:54:36.736Z,39.72
2023-03-06T15:57:06.253Z,39.47
2023-03-06T15:59:37.514Z,36.55
2023-03-06T16:02:18.883Z,41.78
2023-03-06T16:04:47.054Z,39.80
2023-03-06T16:07:14.968Z,38.15
2023-03-06T16:09:43.200Z,40.15
2023-03-06T16:12:19.780Z,43.65
2023-03-06T16:14:48.519Z,39.55
2023-03-06T16:17:16.535Z,40.65
2023-03-06T16:19:44.097Z,36.05
2023-03-06T16:22:15.549Z,39.72
2023-03-06T16:24:43.929Z,39.15
2023-03-06T16:27:19.008Z,38.50
2023-03-06T16:29:46.288Z,38.30
2023-03-06T16:32:13.578Z,34.90
2023-03-06T16:34:42.615Z,35.53
2023-03-06T16:37:13.113Z,39.60
2023-03-06T16:39:41.804Z,35.63
2023-03-06T16:42:08.973Z,36.15
2023-03-06T16:44:36.595Z,31.52
2023-03-06T16:47:05.816Z,36.10
2023-03-06T16:49:34.003Z,36.28
2023-03-06T16:52:01.130Z,30.75
2023-03-06T16:54:28.336Z,33.80
2023-03-06T16:56:55.966Z,31.58
2023-03-06T16:59:24.082Z,27.98
2023-03-06T17:01:52.145Z,33.00
2023-03-06T17:04:19.096Z,31.23
2023-03-06T17:06:46.664Z,28.23
2023-03-06T17:09:14.511Z,35.67
2023-03-06T17:11:44.981Z,30.80
2023-03-06T17:14:12.048Z,32.22
2023-03-06T17:16:40.589Z,30.00
2023-03-06T17:19:08.574Z,38.40
2023-03-06T17:21:38.453Z,31.48
2023-03-06T17:24:06.054Z,31.02
2023-03-06T17:26:37.174Z,28.77
2023-03-06T17:29:06.906Z,29.33
2023-03-06T17:31:34.769Z,33.10
2023-03-06T17:34:02.125Z,28.75
2023-03-06T17:36:30.442Z,30.27
2023-03-06T17:38:59.738Z,29.70
2023-03-06T17:41:27.541Z,34.05
2023-03-06T17:43:58.785Z,28.33
2023-03-06T17:46:27.145Z,27.13
2023-03-06T17:48:55.764Z,29.88
2023-03-06T17:51:24.100Z,40.67
2023-03-06T17:53:52.277Z,27.38
2023-03-06T17:56:19.438Z,30.15
2023-03-06T17:58:46.366Z,33.60
2023-03-06T18:01:22.993Z,27.30
2023-03-06T18:03:55.578Z,29.85
2023-03-06T18:06:30.505Z,30.55
2023-03-06T18:08:58.240Z,30.80
2023-03-06T18:11:31.007Z,28.23
2023-03-06T18:14:02.871Z,27.85
2023-03-06T18:16:32.166Z,31.73
2023-03-06T18:18:59.227Z,32.65
2023-03-06T18:21:26.553Z,29.88
2023-03-06T18:23:53.641Z,32.75
2023-03-06T18:26:23.201Z,28.60
2023-03-06T18:29:07.512Z,29.23
2023-03-06T18:31:40.863Z,30.33
2023-03-06T18:34:12.397Z,29.20
2023-03-06T18:36:41.044Z,32.35
2023-03-06T18:39:10.418Z,30.13
2023-03-06T18:41:38.165Z,33.90
2023-03-06T18:44:09.654Z,28.45
2023-03-06T18:46:38.655Z,27.42
2023-03-06T18:49:08.361Z,26.73
2023-03-06T18:51:35.692Z,35.75
2023-03-06T18:54:06.101Z,34.35
2023-03-06T18:56:33.906Z,29.52
2023-03-06T18:59:08.477Z,28.75
2023-03-06T19:01:35.788Z,28.60
2023-03-06T19:08:05.368Z,32.72
2023-03-06T19:10:36.210Z,32.17
2023-03-06T19:15:33.220Z,34.80
2023-03-06T19:18:01.885Z,32.58
2023-03-06T19:20:28.889Z,35.50
2023-03-06T19:22:56.115Z,30.98
2023-03-06T19:25:23.357Z,33.13
2023-03-06T19:27:50.425Z,30.20
2023-03-06T19:30:18.738Z,33.13
2023-03-06T19:32:46.095Z,36.60
2023-03-06T19:35:13.377Z,33.38
2023-03-06T19:37:44.073Z,31.55
2023-03-06T19:40:12.044Z,34.95
2023-03-06T19:42:39.069Z,34.88
2023-03-06T19:45:07.227Z,36.53
2023-03-06T19:47:34.617Z,36.95
2023-03-06T19:50:02.129Z,34.92
2023-03-06T19:52:29.598Z,34.78
2023-03-06T19:54:59.852Z,33.97
2023-03-06T19:57:28.322Z,33.50
2023-03-06T19:59:57.504Z,34.10
2023-03-06T20:02:27.287Z,32.72
2023-03-06T20:04:55.280Z,35.08
2023-03-06T20:07:24.670Z,33.20
2023-03-06T20:09:52.699Z,30.52
2023-03-06T20:12:22.615Z,27.90
2023-03-06T20:15:35.195Z,28.50
2023-03-06T20:18:02.434Z,27.95
2023-03-06T20:20:29.539Z,27.67
2023-03-06T20:22:56.687Z,28.25
2023-03-06T20:25:24.494Z,30.20
2023-03-06T20:27:51.474Z,26.80
2023-03-06T20:30:18.779Z,29.25
2023-03-06T20:32:45.752Z,22.15
2023-03-06T20:35:12.844Z,24.48
2023-03-06T20:38:07.365Z,30.60
2023-03-06T20:40:39.031Z,23.25
2023-03-06T20:43:08.119Z,23.50
2023-03-06T20:45:35.651Z,26.70
2023-03-06T20:48:02.749Z,27.52
2023-03-06T20:50:29.678Z,25.17
2023-03-06T20:52:58.914Z,22.90
2023-03-06T20:55:25.860Z,28.33
2023-03-06T20:57:53.607Z,24.17
2023-03-06T21:00:21.137Z,25.20
2023-03-06T21:02:48.249Z,26.02
2023-03-06T21:05:15.244Z,28.17
2023-03-06T21:07:42.394Z,25.13
2023-03-06T21:10:10.912Z,27.33
2023-03-06T21:12:37.862Z,24.65
2023-03-06T21:15:05.311Z,26.40
2023-03-06T21:17:38.672Z,26.13
2023-03-06T21:20:15.517Z,29.90
2023-03-06T21:22:42.701Z,34.35
2023-03-06T21:25:57.081Z,26.92
2023-03-06T21:28:24.295Z,26.95
2023-03-06T21:30:51.644Z,36.13
2023-03-06T21:33:18.698Z,28.17
2023-03-06T21:35:47.024Z,31.92
2023-03-06T21:38:14.799Z,27.50
2023-03-06T21:40:42.718Z,27.20
2023-03-06T21:43:10.164Z,23.00
2023-03-06T21:45:37.566Z,23.75
2023-03-06T21:48:06.823Z,24.73
2023-03-06T21:50:33.871Z,20.27
2023-03-06T21:53:19.601Z,20.20
2023-03-06T21:55:46.759Z,19.80
2023-03-06T21:58:13.894Z,18.83
2023-03-06T22:00:41.100Z,17.80
2023-03-06T22:03:08.036Z,14.45
2023-03-06T22:05:38.201Z,20.45
2023-03-06T22:08:05.299Z,15.52
2023-03-06T22:10:32.337Z,16.98
2023-03-06T22:13:29.684Z,16.67
2023-03-06T22:15:56.837Z,18.05
2023-03-06T22:18:24.301Z,22.23
2023-03-06T22:20:53.039Z,17.15
2023-03-06T22:23:20.066Z,18.90
2023-03-06T22:29:46.288Z,20.80
2023-03-06T22:32:13.399Z,21.27
2023-03-06T22:39:02.568Z,17.23
2023-03-06T22:41:30.003Z,23.08
2023-03-06T22:44:00.449Z,22.17
2023-03-06T22:46:28.502Z,22.27
2023-03-06T22:49:05.408Z,21.45
2023-03-06T22:51:32.430Z,21.23
2023-03-06T22:53:59.499Z,20.42
2023-03-06T22:56:26.946Z,19.60
2023-03-06T22:58:54.040Z,22.48
2023-03-06T23:01:25.322Z,28.13
2023-03-06T23:04:00.623Z,19.73
2023-03-06T23:06:33.159Z,22.70
2023-03-06T23:09:01.654Z,19.25
2023-03-06T23:11:29.657Z,18.20
2023-03-06T23:14:25.596Z,19.23
2023-03-06T23:17:11.230Z,18.40
2023-03-06T23:19:57.197Z,19.63
2023-03-06T23:22:43.192Z,18.58
2023-03-06T23:25:29.184Z,21.10
2023-03-06T23:27:56.125Z,19.70
2023-03-06T23:30:23.597Z,19.65
2023-03-06T23:32:53.208Z,17.48
2023-03-06T23:35:20.346Z,18.83
2023-03-06T23:37:47.319Z,20.23
2023-03-06T23:40:14.976Z,17.08
2023-03-06T23:42:42.001Z,19.75
2023-03-06T23:45:12.383Z,19.98
2023-03-06T23:47:39.465Z,20.27
2023-03-06T23:50:06.849Z,23.15
2023-03-06T23:52:34.299Z,20.27
2023-03-06T23:55:02.373Z,18.77
2023-03-06T23:57:45.556Z,21.02
